sensor_id;sensor_type;location;lat;lon;timestamp;temperature;humidity
70076;DHT22;63241;51.056;3.698;2023-02-25T00:00:11;5.80;99.90
70076;DHT22;63241;51.056;3.698;2023-02-25T00:06:25;5.90;99.90
70076;DHT22;63241;51.056;3.698;2023-02-25T00:08:53;5.80;99.90
70076;DHT22;63241;51.056;3.698;2023-02-25T00:11:22;5.80;99.90
70076;DHT22;63241;51.056;3.698;2023-02-25T00:13:50;5.70;99.90
70076;DHT22;63241;51.056;3.698;2023-02-25T00:20:09;5.60;99.90
70076;DHT22;63241;51.056;3.698;2023-02-25T00:22:35;5.40;99.90
70076;DHT22;63241;51.056;3.698;2023-02-25T00:25:04;5.30;99.90
70076;DHT22;63241;51.056;3.698;2023-02-25T00:27:32;5.30;99.90
70076;DHT22;63241;51.056;3.698;2023-02-25T00:33:42;5.30;99.90
70076;DHT22;63241;51.056;3.698;2023-02-25T00:36:13;5.40;99.90
70076;DHT22;63241;51.056;3.698;2023-02-25T00:38:42;5.40;99.90
70076;DHT22;63241;51.056;3.698;2023-02-25T00:41:12;5.40;99.90
70076;DHT22;63241;51.056;3.698;2023-02-25T00:47:20;5.60;99.90
70076;DHT22;63241;51.056;3.698;2023-02-25T00:49:48;5.50;99.90
70076;DHT22;63241;51.056;3.698;2023-02-25T00:52:17;5.40;99.90
70076;DHT22;63241;51.056;3.698;2023-02-25T00:54:45;5.30;99.90
70076;DHT22;63241;51.056;3.698;2023-02-25T01:03:23;5.20;99.90
70076;DHT22;63241;51.056;3.698;2023-02-25T01:05:51;5.10;99.90
70076;DHT22;63241;51.056;3.698;2023-02-25T01:08:19;5.10;99.90
70076;DHT22;63241;51.056;3.698;2023-02-25T01:14:34;4.80;99.90
70076;DHT22;63241;51.056;3.698;2023-02-25T01:17:02;4.70;99.90
70076;DHT22;63241;51.056;3.698;2023-02-25T01:19:30;4.50;99.90
70076;DHT22;63241;51.056;3.698;2023-02-25T01:21:58;4.50;99.90
70076;DHT22;63241;51.056;3.698;2023-02-25T01:28:11;4.50;99.90
70076;DHT22;63241;51.056;3.698;2023-02-25T01:30:38;4.50;99.90
70076;DHT22;63241;51.056;3.698;2023-02-25T01:33:06;4.60;99.90
70076;DHT22;63241;51.056;3.698;2023-02-25T01:35:35;4.70;99.90
70076;DHT22;63241;51.056;3.698;2023-02-25T01:41:48;4.80;99.90
70076;DHT22;63241;51.056;3.698;2023-02-25T01:44:31;4.90;99.90
70076;DHT22;63241;51.056;3.698;2023-02-25T01:46:59;4.90;99.90
70076;DHT22;63241;51.056;3.698;2023-02-25T01:49:34;4.90;99.90
70076;DHT22;63241;51.056;3.698;2023-02-25T01:55:30;5.10;99.90
70076;DHT22;63241;51.056;3.698;2023-02-25T01:57:59;5.10;99.90
70076;DHT22;63241;51.056;3.698;2023-02-25T02:00:29;5.10;99.90
70076;DHT22;63241;51.056;3.698;2023-02-25T02:02:58;5.10;99.90
70076;DHT22;63241;51.056;3.698;2023-02-25T02:09:15;5.30;99.90
70076;DHT22;63241;51.056;3.698;2023-02-25T02:11:39;5.40;99.90
70076;DHT22;63241;51.056;3.698;2023-02-25T02:14:09;5.40;99.90
70076;DHT22;63241;51.056;3.698;2023-02-25T02:26:45;5.50;99.90
70076;DHT22;63241;51.056;3.698;2023-02-25T02:29:18;5.40;99.90
70076;DHT22;63241;51.056;3.698;2023-02-25T02:31:58;5.40;99.90
70076;DHT22;63241;51.056;3.698;2023-02-25T02:41:22;5.40;99.90
70076;DHT22;63241;51.056;3.698;2023-02-25T02:43:49;5.50;99.90
70076;DHT22;63241;51.056;3.698;2023-02-25T02:50:13;5.60;99.90
70076;DHT22;63241;51.056;3.698;2023-02-25T02:52:43;5.60;99.90
70076;DHT22;63241;51.056;3.698;2023-02-25T02:55:15;5.70;99.90
70076;DHT22;63241;51.056;3.698;2023-02-25T02:57:43;5.50;99.90
70076;DHT22;63241;51.056;3.698;2023-02-25T03:00:22;5.40;99.90
70076;DHT22;63241;51.056;3.698;2023-02-25T03:03:24;5.50;99.90
70076;DHT22;63241;51.056;3.698;2023-02-25T03:05:54;5.60;99.90
70076;DHT22;63241;51.056;3.698;2023-02-25T03:08:24;5.70;99.90
70076;DHT22;63241;51.056;3.698;2023-02-25T03:10:53;5.80;99.90
70076;DHT22;63241;51.056;3.698;2023-02-25T03:20:02;5.80;99.90
70076;DHT22;63241;51.056;3.698;2023-02-25T03:22:37;5.80;99.90
70076;DHT22;63241;51.056;3.698;2023-02-25T03:25:07;5.70;99.90
70076;DHT22;63241;51.056;3.698;2023-02-25T03:33:59;5.50;99.90
70076;DHT22;63241;51.056;3.698;2023-02-25T03:36:42;5.50;99.90
70076;DHT22;63241;51.056;3.698;2023-02-25T03:39:15;5.50;99.90
70076;DHT22;63241;51.056;3.698;2023-02-25T03:45:48;5.40;99.90
70076;DHT22;63241;51.056;3.698;2023-02-25T03:48:17;5.50;99.90
70076;DHT22;63241;51.056;3.698;2023-02-25T03:50:55;5.60;99.90
70076;DHT22;63241;51.056;3.698;2023-02-25T03:53:19;5.50;99.90
70076;DHT22;63241;51.056;3.698;2023-02-25T03:59:46;5.60;99.90
70076;DHT22;63241;51.056;3.698;2023-02-25T04:02:15;5.70;99.90
70076;DHT22;63241;51.056;3.698;2023-02-25T04:04:42;5.70;99.90
70076;DHT22;63241;51.056;3.698;2023-02-25T04:07:10;5.70;99.90
70076;DHT22;63241;51.056;3.698;2023-02-25T04:13:40;5.80;99.90
70076;DHT22;63241;51.056;3.698;2023-02-25T04:16:07;5.80;99.90
70076;DHT22;63241;51.056;3.698;2023-02-25T04:18:35;5.80;99.90
70076;DHT22;63241;51.056;3.698;2023-02-25T04:21:05;5.80;99.90
70076;DHT22;63241;51.056;3.698;2023-02-25T04:27:00;5.80;99.90
70076;DHT22;63241;51.056;3.698;2023-02-25T04:29:28;5.80;99.90
70076;DHT22;63241;51.056;3.698;2023-02-25T04:31:56;5.80;99.90
70076;DHT22;63241;51.056;3.698;2023-02-25T04:34:24;5.90;99.90
70076;DHT22;63241;51.056;3.698;2023-02-25T04:43:03;5.80;99.90
70076;DHT22;63241;51.056;3.698;2023-02-25T04:45:30;5.90;99.90
70076;DHT22;63241;51.056;3.698;2023-02-25T04:47:58;5.80;99.90
70076;DHT22;63241;51.056;3.698;2023-02-25T04:50:42;5.80;99.90
70076;DHT22;63241;51.056;3.698;2023-02-25T04:53:27;5.90;99.90
70076;DHT22;63241;51.056;3.698;2023-02-25T04:55:55;5.90;99.90
70076;DHT22;63241;51.056;3.698;2023-02-25T04:58:23;5.90;99.90
70076;DHT22;63241;51.056;3.698;2023-02-25T05:00:50;5.90;99.90
70076;DHT22;63241;51.056;3.698;2023-02-25T05:03:42;6.00;99.90
70076;DHT22;63241;51.056;3.698;2023-02-25T05:06:33;6.00;99.90
70076;DHT22;63241;51.056;3.698;2023-02-25T05:09:00;6.00;99.90
70076;DHT22;63241;51.056;3.698;2023-02-25T05:11:29;6.00;99.90
70076;DHT22;63241;51.056;3.698;2023-02-25T05:13:57;6.00;99.90
70076;DHT22;63241;51.056;3.698;2023-02-25T05:20:02;5.90;99.90
70076;DHT22;63241;51.056;3.698;2023-02-25T05:22:31;5.80;99.90
70076;DHT22;63241;51.056;3.698;2023-02-25T05:24:59;5.90;99.90
70076;DHT22;63241;51.056;3.698;2023-02-25T05:27:27;5.90;99.90
70076;DHT22;63241;51.056;3.698;2023-02-25T05:33:20;6.00;99.90
70076;DHT22;63241;51.056;3.698;2023-02-25T05:35:47;6.00;99.90
70076;DHT22;63241;51.056;3.698;2023-02-25T05:40:57;6.10;99.90
70076;DHT22;63241;51.056;3.698;2023-02-25T05:43:24;6.10;99.90
70076;DHT22;63241;51.056;3.698;2023-02-25T05:45:57;6.10;99.90
70076;DHT22;63241;51.056;3.698;2023-02-25T05:49:03;6.10;99.90
70076;DHT22;63241;51.056;3.698;2023-02-25T05:51:30;6.00;99.90
70076;DHT22;63241;51.056;3.698;2023-02-25T05:54:18;5.90;99.90
70076;DHT22;63241;51.056;3.698;2023-02-25T05:57:06;5.90;99.90
70076;DHT22;63241;51.056;3.698;2023-02-25T05:59:33;5.80;99.90
70076;DHT22;63241;51.056;3.698;2023-02-25T06:02:03;5.80;99.90
70076;DHT22;63241;51.056;3.698;2023-02-25T06:04:31;5.70;99.90
70076;DHT22;63241;51.056;3.698;2023-02-25T06:07:09;5.70;99.90
70076;DHT22;63241;51.056;3.698;2023-02-25T06:09:56;5.70;99.90
70076;DHT22;63241;51.056;3.698;2023-02-25T06:12:27;5.80;99.90
70076;DHT22;63241;51.056;3.698;2023-02-25T06:14:56;5.70;99.90
70076;DHT22;63241;51.056;3.698;2023-02-25T06:17:23;5.60;99.90
70076;DHT22;63241;51.056;3.698;2023-02-25T06:20:03;5.50;99.90
70076;DHT22;63241;51.056;3.698;2023-02-25T06:22:38;5.40;99.90
70076;DHT22;63241;51.056;3.698;2023-02-25T06:25:06;5.20;99.90
70076;DHT22;63241;51.056;3.698;2023-02-25T06:27:34;5.10;99.90
70076;DHT22;63241;51.056;3.698;2023-02-25T06:30:02;5.10;99.90
70076;DHT22;63241;51.056;3.698;2023-02-25T06:32:30;5.10;99.90
70076;DHT22;63241;51.056;3.698;2023-02-25T06:34:58;5.10;99.90
70076;DHT22;63241;51.056;3.698;2023-02-25T06:37:25;5.20;99.90
70076;DHT22;63241;51.056;3.698;2023-02-25T06:39:54;5.20;99.90
70076;DHT22;63241;51.056;3.698;2023-02-25T06:42:22;5.20;99.90
70076;DHT22;63241;51.056;3.698;2023-02-25T06:44:49;5.30;99.90
70076;DHT22;63241;51.056;3.698;2023-02-25T06:47:17;5.30;99.90
70076;DHT22;63241;51.056;3.698;2023-02-25T06:49:45;5.30;99.90
70076;DHT22;63241;51.056;3.698;2023-02-25T06:52:13;5.40;99.90
70076;DHT22;63241;51.056;3.698;2023-02-25T06:54:40;5.50;99.90
70076;DHT22;63241;51.056;3.698;2023-02-25T06:57:08;5.50;99.90
70076;DHT22;63241;51.056;3.698;2023-02-25T06:59:36;5.70;99.90
70076;DHT22;63241;51.056;3.698;2023-02-25T07:02:04;5.70;99.90
70076;DHT22;63241;51.056;3.698;2023-02-25T07:04:32;5.80;99.90
70076;DHT22;63241;51.056;3.698;2023-02-25T07:07:00;5.70;99.90
70076;DHT22;63241;51.056;3.698;2023-02-25T07:09:27;5.80;99.90
70076;DHT22;63241;51.056;3.698;2023-02-25T07:11:55;5.70;99.90
70076;DHT22;63241;51.056;3.698;2023-02-25T07:14:23;5.60;99.90
70076;DHT22;63241;51.056;3.698;2023-02-25T07:16:50;5.60;99.90
70076;DHT22;63241;51.056;3.698;2023-02-25T07:19:18;5.60;99.90
70076;DHT22;63241;51.056;3.698;2023-02-25T07:21:46;5.60;99.90
70076;DHT22;63241;51.056;3.698;2023-02-25T07:24:15;5.70;99.90
70076;DHT22;63241;51.056;3.698;2023-02-25T07:26:43;5.70;99.90
70076;DHT22;63241;51.056;3.698;2023-02-25T07:29:10;5.80;99.90
70076;DHT22;63241;51.056;3.698;2023-02-25T07:31:39;5.90;99.90
70076;DHT22;63241;51.056;3.698;2023-02-25T07:34:07;6.10;99.90
70076;DHT22;63241;51.056;3.698;2023-02-25T07:36:35;6.30;99.90
70076;DHT22;63241;51.056;3.698;2023-02-25T07:39:05;6.50;99.90
70076;DHT22;63241;51.056;3.698;2023-02-25T07:41:35;6.60;99.90
70076;DHT22;63241;51.056;3.698;2023-02-25T07:44:04;6.80;99.90
70076;DHT22;63241;51.056;3.698;2023-02-25T07:46:32;6.90;99.90
70076;DHT22;63241;51.056;3.698;2023-02-25T07:49:00;6.90;99.90
70076;DHT22;63241;51.056;3.698;2023-02-25T07:51:28;7.00;99.90
70076;DHT22;63241;51.056;3.698;2023-02-25T07:53:57;7.10;99.90
70076;DHT22;63241;51.056;3.698;2023-02-25T07:56:27;7.00;99.90
70076;DHT22;63241;51.056;3.698;2023-02-25T07:58:55;7.10;99.90
70076;DHT22;63241;51.056;3.698;2023-02-25T08:01:25;6.80;99.90
70076;DHT22;63241;51.056;3.698;2023-02-25T08:03:55;6.80;99.90
70076;DHT22;63241;51.056;3.698;2023-02-25T08:06:24;6.80;99.90
70076;DHT22;63241;51.056;3.698;2023-02-25T08:08:52;6.80;99.90
70076;DHT22;63241;51.056;3.698;2023-02-25T08:11:22;6.80;99.90
70076;DHT22;63241;51.056;3.698;2023-02-25T08:13:50;6.80;99.90
70076;DHT22;63241;51.056;3.698;2023-02-25T08:16:19;7.00;99.90
70076;DHT22;63241;51.056;3.698;2023-02-25T08:18:47;7.20;99.90
70076;DHT22;63241;51.056;3.698;2023-02-25T08:21:16;7.40;99.90
70076;DHT22;63241;51.056;3.698;2023-02-25T08:23:44;8.50;99.90
70076;DHT22;63241;51.056;3.698;2023-02-25T08:26:12;11.10;99.90
70076;DHT22;63241;51.056;3.698;2023-02-25T08:28:43;14.10;99.90
70076;DHT22;63241;51.056;3.698;2023-02-25T08:31:11;16.50;88.00
70076;DHT22;63241;51.056;3.698;2023-02-25T08:33:41;18.20;71.10
70076;DHT22;63241;51.056;3.698;2023-02-25T08:36:12;19.90;62.10
70076;DHT22;63241;51.056;3.698;2023-02-25T08:38:40;20.40;52.50
70076;DHT22;63241;51.056;3.698;2023-02-25T08:41:08;20.80;49.30
70076;DHT22;63241;51.056;3.698;2023-02-25T08:43:36;20.90;50.50
70076;DHT22;63241;51.056;3.698;2023-02-25T08:46:04;21.30;47.60
70076;DHT22;63241;51.056;3.698;2023-02-25T08:48:33;22.10;47.60
70076;DHT22;63241;51.056;3.698;2023-02-25T08:51:05;22.40;45.10
70076;DHT22;63241;51.056;3.698;2023-02-25T08:53:36;22.70;42.00
70076;DHT22;63241;51.056;3.698;2023-02-25T08:56:05;23.60;41.60
70076;DHT22;63241;51.056;3.698;2023-02-25T08:58:33;24.10;40.10
70076;DHT22;63241;51.056;3.698;2023-02-25T09:01:00;24.60;37.30
70076;DHT22;63241;51.056;3.698;2023-02-25T09:03:29;24.00;35.40
70076;DHT22;63241;51.056;3.698;2023-02-25T09:05:57;25.00;36.40
70076;DHT22;63241;51.056;3.698;2023-02-25T09:08:25;25.10;33.80
70076;DHT22;63241;51.056;3.698;2023-02-25T09:10:53;25.20;32.60
70076;DHT22;63241;51.056;3.698;2023-02-25T09:13:21;25.10;33.00
70076;DHT22;63241;51.056;3.698;2023-02-25T09:15:57;25.60;32.40
70076;DHT22;63241;51.056;3.698;2023-02-25T09:18:24;26.70;32.20
70076;DHT22;63241;51.056;3.698;2023-02-25T09:20:52;26.80;30.60
70076;DHT22;63241;51.056;3.698;2023-02-25T09:23:20;26.50;29.20
70076;DHT22;63241;51.056;3.698;2023-02-25T09:25:47;26.50;30.00
70076;DHT22;63241;51.056;3.698;2023-02-25T09:28:15;26.30;31.20
70076;DHT22;63241;51.056;3.698;2023-02-25T09:30:46;26.60;31.30
70076;DHT22;63241;51.056;3.698;2023-02-25T09:33:14;26.30;29.40
70076;DHT22;63241;51.056;3.698;2023-02-25T09:35:41;26.40;29.50
70076;DHT22;63241;51.056;3.698;2023-02-25T09:38:09;27.70;29.80
70076;DHT22;63241;51.056;3.698;2023-02-25T09:40:39;28.30;28.50
70076;DHT22;63241;51.056;3.698;2023-02-25T09:43:24;28.70;27.20
70076;DHT22;63241;51.056;3.698;2023-02-25T09:46:02;29.40;27.80
70076;DHT22;63241;51.056;3.698;2023-02-25T09:48:27;27.90;26.40
70076;DHT22;63241;51.056;3.698;2023-02-25T09:51:15;24.80;28.60
70076;DHT22;63241;51.056;3.698;2023-02-25T09:53:34;22.50;29.90
70076;DHT22;63241;51.056;3.698;2023-02-25T09:56:04;20.60;34.60
70076;DHT22;63241;51.056;3.698;2023-02-25T09:58:48;20.70;36.30
70076;DHT22;63241;51.056;3.698;2023-02-25T10:01:34;21.00;36.10
70076;DHT22;63241;51.056;3.698;2023-02-25T10:04:37;21.80;34.50
70076;DHT22;63241;51.056;3.698;2023-02-25T10:07:17;23.10;32.80
70076;DHT22;63241;51.056;3.698;2023-02-25T10:09:59;25.00;31.80
70076;DHT22;63241;51.056;3.698;2023-02-25T10:12:41;25.90;28.90
70076;DHT22;63241;51.056;3.698;2023-02-25T10:23:37;23.90;29.40
70076;DHT22;63241;51.056;3.698;2023-02-25T10:26:10;22.20;30.10
70076;DHT22;63241;51.056;3.698;2023-02-25T10:28:35;20.30;33.40
70076;DHT22;63241;51.056;3.698;2023-02-25T10:31:13;19.10;37.00
70076;DHT22;63241;51.056;3.698;2023-02-25T10:33:43;19.40;38.20
70076;DHT22;63241;51.056;3.698;2023-02-25T10:38:52;21.80;35.20
70076;DHT22;63241;51.056;3.698;2023-02-25T10:41:22;21.50;33.90
70076;DHT22;63241;51.056;3.698;2023-02-25T10:43:54;20.30;34.70
70076;DHT22;63241;51.056;3.698;2023-02-25T10:49:18;17.50;39.50
70076;DHT22;63241;51.056;3.698;2023-02-25T10:51:59;16.40;43.10
70076;DHT22;63241;51.056;3.698;2023-02-25T10:54:31;15.50;45.20
70076;DHT22;63241;51.056;3.698;2023-02-25T10:57:01;15.90;46.70
70076;DHT22;63241;51.056;3.698;2023-02-25T10:59:37;16.50;45.00
70076;DHT22;63241;51.056;3.698;2023-02-25T11:02:23;16.90;44.20
70076;DHT22;63241;51.056;3.698;2023-02-25T11:04:52;17.10;43.90
70076;DHT22;63241;51.056;3.698;2023-02-25T11:10:11;17.50;44.30
70076;DHT22;63241;51.056;3.698;2023-02-25T11:12:50;18.70;42.40
70076;DHT22;63241;51.056;3.698;2023-02-25T11:20:49;21.50;36.70
70076;DHT22;63241;51.056;3.698;2023-02-25T11:23:19;20.30;37.90
70076;DHT22;63241;51.056;3.698;2023-02-25T11:25:44;18.50;45.10
70076;DHT22;63241;51.056;3.698;2023-02-25T11:28:31;17.10;47.20
70076;DHT22;63241;51.056;3.698;2023-02-25T11:31:20;16.30;48.40
70076;DHT22;63241;51.056;3.698;2023-02-25T11:33:42;16.50;49.80
70076;DHT22;63241;51.056;3.698;2023-02-25T11:36:10;16.80;47.70
70076;DHT22;63241;51.056;3.698;2023-02-25T13:28:43;19.10;39.90
70076;DHT22;63241;51.056;3.698;2023-02-25T14:16:27;14.10;47.90
70076;DHT22;63241;51.056;3.698;2023-02-25T14:19:11;13.60;49.50
70076;DHT22;63241;51.056;3.698;2023-02-25T14:31:45;13.40;52.20
70076;DHT22;63241;51.056;3.698;2023-02-25T14:43:33;12.70;51.50
70076;DHT22;63241;51.056;3.698;2023-02-25T14:46:12;12.10;52.70
70076;DHT22;63241;51.056;3.698;2023-02-25T14:48:43;11.50;53.70
70076;DHT22;63241;51.056;3.698;2023-02-25T15:12:26;10.70;50.20
70076;DHT22;63241;51.056;3.698;2023-02-25T15:15:14;10.60;50.50
70076;DHT22;63241;51.056;3.698;2023-02-25T15:26:55;10.20;53.50
70076;DHT22;63241;51.056;3.698;2023-02-25T15:53:38;9.30;57.10
70076;DHT22;63241;51.056;3.698;2023-02-25T15:56:29;9.10;57.10
70076;DHT22;63241;51.056;3.698;2023-02-25T15:58:49;9.10;57.60
70076;DHT22;63241;51.056;3.698;2023-02-25T16:07:36;9.10;58.40
70076;DHT22;63241;51.056;3.698;2023-02-25T16:10:17;9.10;58.60
70076;DHT22;63241;51.056;3.698;2023-02-25T16:16:38;9.50;58.60
70076;DHT22;63241;51.056;3.698;2023-02-25T16:19:06;9.70;58.80
70076;DHT22;63241;51.056;3.698;2023-02-25T16:21:39;9.80;58.40
70076;DHT22;63241;51.056;3.698;2023-02-25T16:24:08;9.90;58.00
70076;DHT22;63241;51.056;3.698;2023-02-25T16:36:18;9.20;59.20
70076;DHT22;63241;51.056;3.698;2023-02-25T16:38:53;9.00;59.70
70076;DHT22;63241;51.056;3.698;2023-02-25T16:47:52;8.30;60.50
70076;DHT22;63241;51.056;3.698;2023-02-25T16:50:14;8.30;61.20
70076;DHT22;63241;51.056;3.698;2023-02-25T16:52:47;8.30;61.50
70076;DHT22;63241;51.056;3.698;2023-02-25T16:55:38;8.30;62.30
70076;DHT22;63241;51.056;3.698;2023-02-25T16:58:40;8.20;62.50
70076;DHT22;63241;51.056;3.698;2023-02-25T17:01:11;8.10;63.40
70076;DHT22;63241;51.056;3.698;2023-02-25T17:03:44;7.90;62.30
70076;DHT22;63241;51.056;3.698;2023-02-25T17:06:17;7.70;62.10
70076;DHT22;63241;51.056;3.698;2023-02-25T17:09:06;7.50;59.40
70076;DHT22;63241;51.056;3.698;2023-02-25T17:11:52;7.40;59.40
70076;DHT22;63241;51.056;3.698;2023-02-25T17:14:19;7.20;58.40
70076;DHT22;63241;51.056;3.698;2023-02-25T17:16:47;7.10;58.40
70076;DHT22;63241;51.056;3.698;2023-02-25T17:19:16;7.00;58.40
70076;DHT22;63241;51.056;3.698;2023-02-25T17:22:08;7.00;58.70
70076;DHT22;63241;51.056;3.698;2023-02-25T17:24:59;6.90;58.90
70076;DHT22;63241;51.056;3.698;2023-02-25T17:27:29;6.90;59.10
70076;DHT22;63241;51.056;3.698;2023-02-25T17:29:57;6.90;59.50
70076;DHT22;63241;51.056;3.698;2023-02-25T17:32:27;6.80;59.10
70076;DHT22;63241;51.056;3.698;2023-02-25T17:35:09;6.70;58.90
70076;DHT22;63241;51.056;3.698;2023-02-25T17:38:11;6.60;59.10
70076;DHT22;63241;51.056;3.698;2023-02-25T17:40:38;6.50;59.70
70076;DHT22;63241;51.056;3.698;2023-02-25T17:48:40;6.30;60.00
70076;DHT22;63241;51.056;3.698;2023-02-25T17:51:11;6.20;59.50
70076;DHT22;63241;51.056;3.698;2023-02-25T17:57:54;6.00;59.80
70076;DHT22;63241;51.056;3.698;2023-02-25T18:00:24;5.90;60.30
70076;DHT22;63241;51.056;3.698;2023-02-25T18:09:42;5.80;61.70
70076;DHT22;63241;51.056;3.698;2023-02-25T18:15:00;5.70;62.40
70076;DHT22;63241;51.056;3.698;2023-02-25T18:17:39;5.70;63.10
70076;DHT22;63241;51.056;3.698;2023-02-25T18:23:54;5.60;64.30
70076;DHT22;63241;51.056;3.698;2023-02-25T18:26:24;5.50;64.70
70076;DHT22;63241;51.056;3.698;2023-02-25T18:28:53;5.50;65.20
70076;DHT22;63241;51.056;3.698;2023-02-25T18:31:22;5.40;65.30
70076;DHT22;63241;51.056;3.698;2023-02-25T18:37:18;5.30;66.00
70076;DHT22;63241;51.056;3.698;2023-02-25T18:39:46;5.20;66.00
70076;DHT22;63241;51.056;3.698;2023-02-25T18:42:16;5.10;66.30
70076;DHT22;63241;51.056;3.698;2023-02-25T18:44:45;5.10;66.30
70076;DHT22;63241;51.056;3.698;2023-02-25T18:50:29;5.10;66.10
70076;DHT22;63241;51.056;3.698;2023-02-25T18:52:58;5.00;66.20
70076;DHT22;63241;51.056;3.698;2023-02-25T18:55:28;4.90;66.30
70076;DHT22;63241;51.056;3.698;2023-02-25T18:57:56;4.80;66.40
70076;DHT22;63241;51.056;3.698;2023-02-25T19:04:29;4.80;66.50
70076;DHT22;63241;51.056;3.698;2023-02-25T19:06:56;4.70;66.70
70076;DHT22;63241;51.056;3.698;2023-02-25T19:09:24;4.70;67.10
70076;DHT22;63241;51.056;3.698;2023-02-25T19:11:52;4.70;67.30
70076;DHT22;63241;51.056;3.698;2023-02-25T19:14:59;4.60;67.20
70076;DHT22;63241;51.056;3.698;2023-02-25T19:18:01;4.60;67.40
70076;DHT22;63241;51.056;3.698;2023-02-25T19:20:28;4.50;67.70
70076;DHT22;63241;51.056;3.698;2023-02-25T19:22:56;4.50;68.20
70076;DHT22;63241;51.056;3.698;2023-02-25T19:25:26;4.40;69.20
70076;DHT22;63241;51.056;3.698;2023-02-25T19:31:46;4.40;69.00
70076;DHT22;63241;51.056;3.698;2023-02-25T19:34:14;4.40;69.50
70076;DHT22;63241;51.056;3.698;2023-02-25T19:36:41;4.40;69.70
70076;DHT22;63241;51.056;3.698;2023-02-25T19:39:09;4.40;69.90
70076;DHT22;63241;51.056;3.698;2023-02-25T19:45:25;4.30;70.20
70076;DHT22;63241;51.056;3.698;2023-02-25T19:47:53;4.30;70.50
70076;DHT22;63241;51.056;3.698;2023-02-25T19:50:23;4.20;71.00
70076;DHT22;63241;51.056;3.698;2023-02-25T19:52:52;4.20;71.30
70076;DHT22;63241;51.056;3.698;2023-02-25T19:59:08;4.20;70.90
70076;DHT22;63241;51.056;3.698;2023-02-25T20:01:38;4.20;71.40
70076;DHT22;63241;51.056;3.698;2023-02-25T20:04:07;4.20;71.20
70076;DHT22;63241;51.056;3.698;2023-02-25T20:06:37;4.20;71.30
70076;DHT22;63241;51.056;3.698;2023-02-25T20:12:42;4.20;71.50
70076;DHT22;63241;51.056;3.698;2023-02-25T20:15:11;4.20;71.80
70076;DHT22;63241;51.056;3.698;2023-02-25T20:17:40;4.20;71.80
70076;DHT22;63241;51.056;3.698;2023-02-25T20:20:09;4.20;71.90
70076;DHT22;63241;51.056;3.698;2023-02-25T20:28:51;4.20;72.30
70076;DHT22;63241;51.056;3.698;2023-02-25T20:31:20;4.10;72.50
70076;DHT22;63241;51.056;3.698;2023-02-25T20:33:53;4.10;73.00
70076;DHT22;63241;51.056;3.698;2023-02-25T20:40:07;4.10;73.50
70076;DHT22;63241;51.056;3.698;2023-02-25T20:42:36;4.10;73.50
70076;DHT22;63241;51.056;3.698;2023-02-25T20:45:05;4.00;74.00
70076;DHT22;63241;51.056;3.698;2023-02-25T20:47:34;4.10;74.80
70076;DHT22;63241;51.056;3.698;2023-02-25T20:53:41;4.00;74.70
70076;DHT22;63241;51.056;3.698;2023-02-25T20:56:11;4.00;75.20
70076;DHT22;63241;51.056;3.698;2023-02-25T20:58:39;4.00;75.60
70076;DHT22;63241;51.056;3.698;2023-02-25T21:01:06;4.00;75.30
70076;DHT22;63241;51.056;3.698;2023-02-25T21:07:19;4.00;76.10
70076;DHT22;63241;51.056;3.698;2023-02-25T21:09:47;3.90;76.70
70076;DHT22;63241;51.056;3.698;2023-02-25T21:12:15;3.90;77.20
70076;DHT22;63241;51.056;3.698;2023-02-25T21:14:42;3.90;78.10
70076;DHT22;63241;51.056;3.698;2023-02-25T21:20:55;3.80;78.70
70076;DHT22;63241;51.056;3.698;2023-02-25T21:23:19;3.80;80.00
70076;DHT22;63241;51.056;3.698;2023-02-25T21:25:47;3.80;79.30
70076;DHT22;63241;51.056;3.698;2023-02-25T21:28:14;3.70;80.50
70076;DHT22;63241;51.056;3.698;2023-02-25T21:34:30;3.70;81.40
70076;DHT22;63241;51.056;3.698;2023-02-25T21:36:58;3.60;81.40
70076;DHT22;63241;51.056;3.698;2023-02-25T21:39:26;3.60;82.30
70076;DHT22;63241;51.056;3.698;2023-02-25T21:41:53;3.60;83.10
70076;DHT22;63241;51.056;3.698;2023-02-25T21:48:12;3.50;84.60
70076;DHT22;63241;51.056;3.698;2023-02-25T21:50:43;3.50;87.40
70076;DHT22;63241;51.056;3.698;2023-02-25T21:53:10;3.40;86.80
70076;DHT22;63241;51.056;3.698;2023-02-25T21:55:38;3.40;88.90
70076;DHT22;63241;51.056;3.698;2023-02-25T22:04:17;3.30;88.80
70076;DHT22;63241;51.056;3.698;2023-02-25T22:06:45;3.20;89.80
70076;DHT22;63241;51.056;3.698;2023-02-25T22:09:15;3.20;88.90
70076;DHT22;63241;51.056;3.698;2023-02-25T22:15:28;3.20;89.30
70076;DHT22;63241;51.056;3.698;2023-02-25T22:17:56;3.10;89.90
70076;DHT22;63241;51.056;3.698;2023-02-25T22:20:23;3.10;88.70
70076;DHT22;63241;51.056;3.698;2023-02-25T22:22:51;3.10;89.10
70076;DHT22;63241;51.056;3.698;2023-02-25T22:29:06;3.00;89.80
70076;DHT22;63241;51.056;3.698;2023-02-25T22:31:33;3.00;90.00
70076;DHT22;63241;51.056;3.698;2023-02-25T22:34:01;3.00;90.50
70076;DHT22;63241;51.056;3.698;2023-02-25T22:36:29;3.00;89.70
70076;DHT22;63241;51.056;3.698;2023-02-25T22:42:47;2.90;87.60
70076;DHT22;63241;51.056;3.698;2023-02-25T22:45:15;2.90;88.70
70076;DHT22;63241;51.056;3.698;2023-02-25T22:47:42;2.80;88.20
70076;DHT22;63241;51.056;3.698;2023-02-25T22:50:10;2.80;88.40
70076;DHT22;63241;51.056;3.698;2023-02-25T22:58:51;2.60;89.90
70076;DHT22;63241;51.056;3.698;2023-02-25T23:01:21;2.50;90.60
70076;DHT22;63241;51.056;3.698;2023-02-25T23:03:50;2.50;91.10
